sensor_id;sensor_type;location;lat;lon;timestamp;P1;durP1;ratioP1;P2;durP2;ratioP2
40116;SDS011;25829;50.228;18.936;2023-04-01T00:01:17;8.13;;;3.77;;
40116;SDS011;25829;50.228;18.936;2023-04-01T00:04:18;4.83;;;2.90;;
40116;SDS011;25829;50.228;18.936;2023-04-01T00:07:20;6.13;;;3.53;;
40116;SDS011;25829;50.228;18.936;2023-04-01T00:10:21;5.97;;;3.47;;
40116;SDS011;25829;50.228;18.936;2023-04-01T00:13:22;6.60;;;3.77;;
40116;SDS011;25829;50.228;18.936;2023-04-01T00:16:23;5.80;;;3.23;;
40116;SDS011;25829;50.228;18.936;2023-04-01T00:19:24;5.40;;;3.20;;
40116;SDS011;25829;50.228;18.936;2023-04-01T00:25:37;4.83;;;2.97;;
40116;SDS011;25829;50.228;18.936;2023-04-01T00:28:37;3.20;;;2.73;;
40116;SDS011;25829;50.228;18.936;2023-04-01T00:31:39;4.13;;;2.70;;
40116;SDS011;25829;50.228;18.936;2023-04-01T00:34:49;3.53;;;2.60;;
40116;SDS011;25829;50.228;18.936;2023-04-01T00:37:52;3.77;;;2.93;;
40116;SDS011;25829;50.228;18.936;2023-04-01T00:40:56;4.57;;;3.23;;
40116;SDS011;25829;50.228;18.936;2023-04-01T00:44:11;6.83;;;3.20;;
40116;SDS011;25829;50.228;18.936;2023-04-01T00:47:20;6.03;;;3.00;;
40116;SDS011;25829;50.228;18.936;2023-04-01T00:50:22;6.23;;;2.80;;
40116;SDS011;25829;50.228;18.936;2023-04-01T00:53:25;4.60;;;3.03;;
40116;SDS011;25829;50.228;18.936;2023-04-01T00:56:39;4.20;;;3.07;;
40116;SDS011;25829;50.228;18.936;2023-04-01T00:59:46;3.87;;;3.07;;
40116;SDS011;25829;50.228;18.936;2023-04-01T01:02:50;5.43;;;2.80;;
40116;SDS011;25829;50.228;18.936;2023-04-01T01:06:11;3.73;;;3.23;;
40116;SDS011;25829;50.228;18.936;2023-04-01T01:09:38;4.53;;;3.10;;
40116;SDS011;25829;50.228;18.936;2023-04-01T01:16:10;5.07;;;3.23;;
40116;SDS011;25829;50.228;18.936;2023-04-01T01:36:31;6.57;;;4.33;;
40116;SDS011;25829;50.228;18.936;2023-04-01T01:39:41;7.73;;;3.77;;
40116;SDS011;25829;50.228;18.936;2023-04-01T01:42:50;5.23;;;4.00;;
40116;SDS011;25829;50.228;18.936;2023-04-01T01:45:55;4.70;;;3.23;;
40116;SDS011;25829;50.228;18.936;2023-04-01T01:49:00;6.03;;;3.40;;
40116;SDS011;25829;50.228;18.936;2023-04-01T01:52:04;6.23;;;4.00;;
40116;SDS011;25829;50.228;18.936;2023-04-01T01:58:29;4.90;;;3.40;;
40116;SDS011;25829;50.228;18.936;2023-04-01T02:01:42;6.20;;;4.03;;
40116;SDS011;25829;50.228;18.936;2023-04-01T02:04:47;5.00;;;3.83;;
40116;SDS011;25829;50.228;18.936;2023-04-01T02:08:13;5.73;;;3.77;;
40116;SDS011;25829;50.228;18.936;2023-04-01T02:11:37;5.50;;;3.87;;
40116;SDS011;25829;50.228;18.936;2023-04-01T02:14:56;5.13;;;3.93;;
40116;SDS011;25829;50.228;18.936;2023-04-01T02:18:01;5.10;;;3.60;;
40116;SDS011;25829;50.228;18.936;2023-04-01T02:21:04;5.10;;;3.70;;
40116;SDS011;25829;50.228;18.936;2023-04-01T02:24:08;6.17;;;3.80;;
40116;SDS011;25829;50.228;18.936;2023-04-01T02:27:24;5.07;;;3.43;;
40116;SDS011;25829;50.228;18.936;2023-04-01T02:30:29;5.00;;;4.33;;
40116;SDS011;25829;50.228;18.936;2023-04-01T02:33:33;6.43;;;3.60;;
40116;SDS011;25829;50.228;18.936;2023-04-01T02:36:35;6.80;;;4.10;;
40116;SDS011;25829;50.228;18.936;2023-04-01T02:39:36;4.10;;;3.70;;
40116;SDS011;25829;50.228;18.936;2023-04-01T02:42:37;4.93;;;3.60;;
40116;SDS011;25829;50.228;18.936;2023-04-01T02:45:38;6.83;;;3.53;;
40116;SDS011;25829;50.228;18.936;2023-04-01T02:48:41;3.70;;;3.30;;
40116;SDS011;25829;50.228;18.936;2023-04-01T02:51:43;5.53;;;3.80;;
40116;SDS011;25829;50.228;18.936;2023-04-01T02:54:44;3.90;;;2.90;;
40116;SDS011;25829;50.228;18.936;2023-04-01T02:57:45;5.60;;;2.57;;
40116;SDS011;25829;50.228;18.936;2023-04-01T03:00:48;3.87;;;3.07;;
40116;SDS011;25829;50.228;18.936;2023-04-01T03:03:49;4.10;;;2.90;;
40116;SDS011;25829;50.228;18.936;2023-04-01T03:06:50;5.53;;;2.60;;
40116;SDS011;25829;50.228;18.936;2023-04-01T03:09:51;4.07;;;2.50;;
40116;SDS011;25829;50.228;18.936;2023-04-01T03:12:52;3.23;;;2.20;;
40116;SDS011;25829;50.228;18.936;2023-04-01T03:15:53;4.57;;;2.90;;
40116;SDS011;25829;50.228;18.936;2023-04-01T03:18:54;4.77;;;3.10;;
40116;SDS011;25829;50.228;18.936;2023-04-01T03:21:59;7.53;;;3.97;;
40116;SDS011;25829;50.228;18.936;2023-04-01T03:25:00;4.33;;;2.93;;
40116;SDS011;25829;50.228;18.936;2023-04-01T03:28:02;4.20;;;2.93;;
40116;SDS011;25829;50.228;18.936;2023-04-01T03:31:03;4.80;;;2.70;;
40116;SDS011;25829;50.228;18.936;2023-04-01T03:34:12;5.33;;;2.70;;
40116;SDS011;25829;50.228;18.936;2023-04-01T03:37:13;4.00;;;2.60;;
40116;SDS011;25829;50.228;18.936;2023-04-01T03:40:14;4.30;;;2.33;;
40116;SDS011;25829;50.228;18.936;2023-04-01T03:43:18;3.87;;;2.43;;
40116;SDS011;25829;50.228;18.936;2023-04-01T03:46:19;3.47;;;2.23;;
40116;SDS011;25829;50.228;18.936;2023-04-01T03:49:24;3.77;;;2.60;;
40116;SDS011;25829;50.228;18.936;2023-04-01T03:52:25;3.73;;;2.43;;
40116;SDS011;25829;50.228;18.936;2023-04-01T03:55:26;3.40;;;2.70;;
40116;SDS011;25829;50.228;18.936;2023-04-01T03:58:27;4.13;;;2.47;;
40116;SDS011;25829;50.228;18.936;2023-04-01T04:01:28;4.23;;;2.70;;
40116;SDS011;25829;50.228;18.936;2023-04-01T04:04:30;6.57;;;2.97;;
40116;SDS011;25829;50.228;18.936;2023-04-01T04:07:33;6.60;;;3.10;;
40116;SDS011;25829;50.228;18.936;2023-04-01T04:10:41;4.13;;;2.80;;
40116;SDS011;25829;50.228;18.936;2023-04-01T04:13:45;4.50;;;2.63;;
40116;SDS011;25829;50.228;18.936;2023-04-01T04:16:48;5.53;;;2.90;;
40116;SDS011;25829;50.228;18.936;2023-04-01T04:19:50;3.83;;;2.93;;
40116;SDS011;25829;50.228;18.936;2023-04-01T04:22:51;3.20;;;2.70;;
40116;SDS011;25829;50.228;18.936;2023-04-01T04:25:56;4.20;;;2.50;;
40116;SDS011;25829;50.228;18.936;2023-04-01T04:29:08;4.77;;;2.50;;
40116;SDS011;25829;50.228;18.936;2023-04-01T04:32:09;5.13;;;3.00;;
40116;SDS011;25829;50.228;18.936;2023-04-01T04:35:18;4.57;;;2.77;;
40116;SDS011;25829;50.228;18.936;2023-04-01T04:38:20;4.80;;;2.97;;
40116;SDS011;25829;50.228;18.936;2023-04-01T04:41:21;7.40;;;3.73;;
40116;SDS011;25829;50.228;18.936;2023-04-01T04:44:23;5.23;;;3.40;;
40116;SDS011;25829;50.228;18.936;2023-04-01T04:47:24;4.73;;;3.30;;
40116;SDS011;25829;50.228;18.936;2023-04-01T04:50:28;4.20;;;3.47;;
40116;SDS011;25829;50.228;18.936;2023-04-01T04:53:30;3.83;;;3.40;;
40116;SDS011;25829;50.228;18.936;2023-04-01T04:56:31;6.13;;;3.63;;
40116;SDS011;25829;50.228;18.936;2023-04-01T04:59:41;9.40;;;5.10;;
40116;SDS011;25829;50.228;18.936;2023-04-01T05:02:54;14.60;;;6.10;;
40116;SDS011;25829;50.228;18.936;2023-04-01T05:05:58;15.10;;;7.03;;
40116;SDS011;25829;50.228;18.936;2023-04-01T05:08:59;29.27;;;13.17;;
40116;SDS011;25829;50.228;18.936;2023-04-01T05:12:00;26.40;;;11.53;;
40116;SDS011;25829;50.228;18.936;2023-04-01T05:15:08;17.73;;;8.97;;
40116;SDS011;25829;50.228;18.936;2023-04-01T05:18:10;13.60;;;7.00;;
40116;SDS011;25829;50.228;18.936;2023-04-01T05:21:11;12.03;;;7.37;;
40116;SDS011;25829;50.228;18.936;2023-04-01T05:24:15;8.27;;;4.90;;
40116;SDS011;25829;50.228;18.936;2023-04-01T05:27:16;6.07;;;3.50;;
40116;SDS011;25829;50.228;18.936;2023-04-01T05:30:24;5.40;;;4.07;;
40116;SDS011;25829;50.228;18.936;2023-04-01T05:37:08;5.87;;;4.00;;
40116;SDS011;25829;50.228;18.936;2023-04-01T05:40:10;5.47;;;3.17;;
40116;SDS011;25829;50.228;18.936;2023-04-01T05:43:11;5.20;;;3.30;;
40116;SDS011;25829;50.228;18.936;2023-04-01T05:46:27;5.40;;;3.03;;
40116;SDS011;25829;50.228;18.936;2023-04-01T05:49:43;4.87;;;2.70;;
40116;SDS011;25829;50.228;18.936;2023-04-01T05:52:44;3.73;;;2.83;;
40116;SDS011;25829;50.228;18.936;2023-04-01T05:55:45;3.60;;;2.73;;
40116;SDS011;25829;50.228;18.936;2023-04-01T05:58:50;4.20;;;2.53;;
40116;SDS011;25829;50.228;18.936;2023-04-01T06:01:59;5.93;;;3.13;;
40116;SDS011;25829;50.228;18.936;2023-04-01T06:05:10;4.17;;;2.70;;
40116;SDS011;25829;50.228;18.936;2023-04-01T06:08:25;3.60;;;2.50;;
40116;SDS011;25829;50.228;18.936;2023-04-01T06:28:50;4.03;;;3.10;;
40116;SDS011;25829;50.228;18.936;2023-04-01T06:35:28;3.83;;;2.17;;
40116;SDS011;25829;50.228;18.936;2023-04-01T06:42:51;5.27;;;2.80;;
40116;SDS011;25829;50.228;18.936;2023-04-01T06:45:45;4.93;;;2.77;;
40116;SDS011;25829;50.228;18.936;2023-04-01T06:49:32;2.97;;;2.67;;
40116;SDS011;25829;50.228;18.936;2023-04-01T06:57:00;5.60;;;3.23;;
40116;SDS011;25829;50.228;18.936;2023-04-01T07:03:47;5.07;;;3.30;;
40116;SDS011;25829;50.228;18.936;2023-04-01T07:07:29;5.40;;;3.17;;
40116;SDS011;25829;50.228;18.936;2023-04-01T07:14:25;6.20;;;3.47;;
40116;SDS011;25829;50.228;18.936;2023-04-01T07:17:46;5.00;;;3.50;;
40116;SDS011;25829;50.228;18.936;2023-04-01T07:20:59;3.97;;;3.57;;
40116;SDS011;25829;50.228;18.936;2023-04-01T07:27:43;4.33;;;3.70;;
40116;SDS011;25829;50.228;18.936;2023-04-01T07:38:51;4.32;;;3.17;;
40116;SDS011;25829;50.228;18.936;2023-04-01T07:42:42;6.35;;;4.38;;
40116;SDS011;25829;50.228;18.936;2023-04-01T07:57:52;6.47;;;3.90;;
40116;SDS011;25829;50.228;18.936;2023-04-01T08:01:39;6.13;;;4.25;;
40116;SDS011;25829;50.228;18.936;2023-04-01T08:05:16;5.33;;;4.10;;
40116;SDS011;25829;50.228;18.936;2023-04-01T08:21:02;4.90;;;3.22;;
40116;SDS011;25829;50.228;18.936;2023-04-01T08:24:48;5.75;;;3.50;;
40116;SDS011;25829;50.228;18.936;2023-04-01T08:32:18;4.90;;;3.78;;
40116;SDS011;25829;50.228;18.936;2023-04-01T08:47:46;5.20;;;3.40;;
40116;SDS011;25829;50.228;18.936;2023-04-01T08:51:12;6.40;;;3.58;;
40116;SDS011;25829;50.228;18.936;2023-04-01T09:16:26;4.07;;;2.78;;
40116;SDS011;25829;50.228;18.936;2023-04-01T09:19:56;2.53;;;2.33;;
40116;SDS011;25829;50.228;18.936;2023-04-01T09:23:27;3.35;;;2.20;;
40116;SDS011;25829;50.228;18.936;2023-04-01T09:26:42;2.22;;;1.75;;
40116;SDS011;25829;50.228;18.936;2023-04-01T09:40:55;2.55;;;2.35;;
40116;SDS011;25829;50.228;18.936;2023-04-01T09:44:38;3.28;;;2.50;;
40116;SDS011;25829;50.228;18.936;2023-04-01T10:29:00;2.92;;;2.05;;
40116;SDS011;25829;50.228;18.936;2023-04-01T10:32:42;3.67;;;2.20;;
40116;SDS011;25829;50.228;18.936;2023-04-01T10:50:42;2.97;;;2.03;;
40116;SDS011;25829;50.228;18.936;2023-04-01T11:06:11;2.30;;;1.98;;
40116;SDS011;25829;50.228;18.936;2023-04-01T11:23:59;2.17;;;1.98;;
40116;SDS011;25829;50.228;18.936;2023-04-01T11:35:19;2.05;;;1.70;;
40116;SDS011;25829;50.228;18.936;2023-04-01T11:50:49;1.80;;;1.60;;
40116;SDS011;25829;50.228;18.936;2023-04-01T12:01:56;1.70;;;1.58;;
40116;SDS011;25829;50.228;18.936;2023-04-01T12:13:27;2.80;;;2.00;;
40116;SDS011;25829;50.228;18.936;2023-04-01T12:21:32;3.67;;;2.20;;
40116;SDS011;25829;50.228;18.936;2023-04-01T12:49:09;1.90;;;1.60;;
40116;SDS011;25829;50.228;18.936;2023-04-01T13:44:11;2.90;;;2.28;;
40116;SDS011;25829;50.228;18.936;2023-04-01T13:47:35;2.55;;;1.80;;
40116;SDS011;25829;50.228;18.936;2023-04-01T14:08:40;5.13;;;1.88;;
40116;SDS011;25829;50.228;18.936;2023-04-01T14:29:59;3.97;;;2.55;;
40116;SDS011;25829;50.228;18.936;2023-04-01T14:40:05;2.75;;;2.45;;
40116;SDS011;25829;50.228;18.936;2023-04-01T14:43:58;2.28;;;2.08;;
40116;SDS011;25829;50.228;18.936;2023-04-01T14:50:29;2.10;;;1.90;;
40116;SDS011;25829;50.228;18.936;2023-04-01T14:54:06;3.83;;;2.20;;
40116;SDS011;25829;50.228;18.936;2023-04-01T14:57:23;2.45;;;1.75;;
40116;SDS011;25829;50.228;18.936;2023-04-01T15:07:50;4.28;;;3.30;;
40116;SDS011;25829;50.228;18.936;2023-04-01T15:14:58;3.78;;;2.90;;
40116;SDS011;25829;50.228;18.936;2023-04-01T15:39:00;4.82;;;3.55;;
40116;SDS011;25829;50.228;18.936;2023-04-01T15:42:14;5.28;;;3.47;;
40116;SDS011;25829;50.228;18.936;2023-04-01T15:48:50;4.70;;;3.15;;
40116;SDS011;25829;50.228;18.936;2023-04-01T15:52:07;5.63;;;3.40;;
40116;SDS011;25829;50.228;18.936;2023-04-01T15:58:44;4.10;;;3.08;;
40116;SDS011;25829;50.228;18.936;2023-04-01T16:15:56;4.63;;;3.13;;
40116;SDS011;25829;50.228;18.936;2023-04-01T16:22:38;4.90;;;2.80;;
40116;SDS011;25829;50.228;18.936;2023-04-01T16:25:51;3.80;;;2.70;;
40116;SDS011;25829;50.228;18.936;2023-04-01T16:29:19;5.47;;;2.95;;
40116;SDS011;25829;50.228;18.936;2023-04-01T16:36:36;3.50;;;3.03;;
40116;SDS011;25829;50.228;18.936;2023-04-01T16:39:53;5.60;;;4.05;;
40116;SDS011;25829;50.228;18.936;2023-04-01T16:46:46;5.47;;;4.03;;
40116;SDS011;25829;50.228;18.936;2023-04-01T17:04:07;7.00;;;4.23;;
40116;SDS011;25829;50.228;18.936;2023-04-01T17:10:33;5.10;;;4.28;;
40116;SDS011;25829;50.228;18.936;2023-04-01T17:17:28;6.67;;;4.97;;
40116;SDS011;25829;50.228;18.936;2023-04-01T17:20:54;9.75;;;5.28;;
40116;SDS011;25829;50.228;18.936;2023-04-01T17:30:30;10.37;;;5.63;;
40116;SDS011;25829;50.228;18.936;2023-04-01T17:51:40;9.63;;;6.30;;
40116;SDS011;25829;50.228;18.936;2023-04-01T17:58:32;9.23;;;6.50;;
40116;SDS011;25829;50.228;18.936;2023-04-01T18:21:52;14.47;;;7.20;;
40116;SDS011;25829;50.228;18.936;2023-04-01T18:24:59;9.80;;;6.23;;
40116;SDS011;25829;50.228;18.936;2023-04-01T18:31:44;12.53;;;7.47;;
40116;SDS011;25829;50.228;18.936;2023-04-01T18:38:03;11.87;;;7.23;;
40116;SDS011;25829;50.228;18.936;2023-04-01T18:48:33;14.57;;;5.93;;
40116;SDS011;25829;50.228;18.936;2023-04-01T18:54:44;12.37;;;6.53;;
40116;SDS011;25829;50.228;18.936;2023-04-01T18:57:52;8.20;;;5.20;;
40116;SDS011;25829;50.228;18.936;2023-04-01T19:01:04;9.50;;;5.07;;
40116;SDS011;25829;50.228;18.936;2023-04-01T19:14:28;9.83;;;6.80;;
40116;SDS011;25829;50.228;18.936;2023-04-01T19:18:14;10.23;;;6.70;;
40116;SDS011;25829;50.228;18.936;2023-04-01T19:21:19;8.90;;;6.03;;
40116;SDS011;25829;50.228;18.936;2023-04-01T19:27:53;12.37;;;7.50;;
40116;SDS011;25829;50.228;18.936;2023-04-01T19:37:57;18.73;;;11.93;;
40116;SDS011;25829;50.228;18.936;2023-04-01T19:41:21;19.37;;;12.43;;
40116;SDS011;25829;50.228;18.936;2023-04-01T19:47:37;18.47;;;12.00;;
40116;SDS011;25829;50.228;18.936;2023-04-01T19:50:50;26.27;;;12.70;;
40116;SDS011;25829;50.228;18.936;2023-04-01T20:00:56;28.17;;;16.47;;
40116;SDS011;25829;50.228;18.936;2023-04-01T20:04:01;26.47;;;15.40;;
40116;SDS011;25829;50.228;18.936;2023-04-01T20:10:10;21.30;;;12.63;;
40116;SDS011;25829;50.228;18.936;2023-04-01T20:13:22;20.77;;;12.43;;
40116;SDS011;25829;50.228;18.936;2023-04-01T20:16:51;19.50;;;11.03;;
40116;SDS011;25829;50.228;18.936;2023-04-01T20:27:02;20.60;;;12.07;;
40116;SDS011;25829;50.228;18.936;2023-04-01T20:37:44;22.57;;;13.53;;
40116;SDS011;25829;50.228;18.936;2023-04-01T20:41:20;21.40;;;13.97;;
40116;SDS011;25829;50.228;18.936;2023-04-01T20:44:39;16.60;;;12.53;;
40116;SDS011;25829;50.228;18.936;2023-04-01T20:51:12;14.57;;;9.87;;
40116;SDS011;25829;50.228;18.936;2023-04-01T21:00:45;11.97;;;9.37;;
40116;SDS011;25829;50.228;18.936;2023-04-01T21:04:04;10.73;;;8.63;;
40116;SDS011;25829;50.228;18.936;2023-04-01T21:10:43;12.50;;;7.90;;
40116;SDS011;25829;50.228;18.936;2023-04-01T21:27:07;15.03;;;10.60;;
40116;SDS011;25829;50.228;18.936;2023-04-01T21:34:25;15.53;;;11.57;;
40116;SDS011;25829;50.228;18.936;2023-04-01T21:37:53;16.33;;;10.67;;
40116;SDS011;25829;50.228;18.936;2023-04-01T21:44:40;16.10;;;10.60;;
40116;SDS011;25829;50.228;18.936;2023-04-01T22:07:23;20.43;;;12.40;;
40116;SDS011;25829;50.228;18.936;2023-04-01T22:10:37;90.77;;;45.37;;
40116;SDS011;25829;50.228;18.936;2023-04-01T22:13:48;35.13;;;22.23;;
40116;SDS011;25829;50.228;18.936;2023-04-01T22:16:58;62.77;;;34.80;;
40116;SDS011;25829;50.228;18.936;2023-04-01T22:20:16;63.70;;;36.73;;
40116;SDS011;25829;50.228;18.936;2023-04-01T22:24:31;51.17;;;29.03;;
40116;SDS011;25829;50.228;18.936;2023-04-01T22:27:18;42.10;;;26.07;;
40116;SDS011;25829;50.228;18.936;2023-04-01T22:30:39;36.67;;;23.80;;
40116;SDS011;25829;50.228;18.936;2023-04-01T22:34:14;35.70;;;22.23;;
40116;SDS011;25829;50.228;18.936;2023-04-01T22:43:56;32.83;;;20.70;;
40116;SDS011;25829;50.228;18.936;2023-04-01T22:47:06;31.97;;;19.93;;
40116;SDS011;25829;50.228;18.936;2023-04-01T22:50:44;29.50;;;19.03;;
40116;SDS011;25829;50.228;18.936;2023-04-01T23:00:39;25.60;;;17.70;;
40116;SDS011;25829;50.228;18.936;2023-04-01T23:03:46;26.10;;;17.97;;
40116;SDS011;25829;50.228;18.936;2023-04-01T23:06:55;30.07;;;17.53;;
40116;SDS011;25829;50.228;18.936;2023-04-01T23:10:03;26.70;;;16.93;;
40116;SDS011;25829;50.228;18.936;2023-04-01T23:13:15;25.53;;;17.40;;
40116;SDS011;25829;50.228;18.936;2023-04-01T23:16:21;25.23;;;17.97;;
40116;SDS011;25829;50.228;18.936;2023-04-01T23:23:20;29.27;;;19.17;;
40116;SDS011;25829;50.228;18.936;2023-04-01T23:26:46;25.83;;;18.30;;
40116;SDS011;25829;50.228;18.936;2023-04-01T23:29:55;26.00;;;17.23;;
40116;SDS011;25829;50.228;18.936;2023-04-01T23:33:06;26.13;;;17.57;;
40116;SDS011;25829;50.228;18.936;2023-04-01T23:36:21;27.63;;;17.53;;
40116;SDS011;25829;50.228;18.936;2023-04-01T23:39:41;24.17;;;16.80;;
40116;SDS011;25829;50.228;18.936;2023-04-01T23:42:44;30.80;;;19.07;;
40116;SDS011;25829;50.228;18.936;2023-04-01T23:45:45;31.60;;;18.23;;
40116;SDS011;25829;50.228;18.936;2023-04-01T23:48:46;27.23;;;18.33;;
40116;SDS011;25829;50.228;18.936;2023-04-01T23:51:52;24.40;;;17.53;;
40116;SDS011;25829;50.228;18.936;2023-04-01T23:55:02;26.87;;;17.53;;
40116;SDS011;25829;50.228;18.936;2023-04-01T23:58:26;29.10;;;18.63;;
